createdAt,value
2018-04-24T00:00:43.109Z,12.80
2018-04-24T00:03:10.513Z,12.70
2018-04-24T00:05:37.936Z,12.70
2018-04-24T00:08:05.397Z,12.70
2018-04-24T00:10:33.336Z,12.70
2018-04-24T00:13:02.205Z,12.70
2018-04-24T00:15:31.312Z,12.60
2018-04-24T00:17:59.499Z,12.50
2018-04-24T00:20:27.000Z,12.50
2018-04-24T00:22:54.413Z,12.50
2018-04-24T00:25:21.832Z,12.50
2018-04-24T00:27:49.252Z,12.50
2018-04-24T00:30:16.656Z,12.40
2018-04-24T00:32:44.140Z,12.40
2018-04-24T00:35:12.433Z,12.20
2018-04-24T00:37:39.849Z,12.20
2018-04-24T00:40:07.378Z,12.20
2018-04-24T00:42:34.816Z,12.20
2018-04-24T00:45:03.025Z,12.40
2018-04-24T00:47:30.448Z,12.30
2018-04-24T00:49:57.877Z,12.30
2018-04-24T00:52:25.345Z,12.40
2018-04-24T00:54:52.748Z,12.30
2018-04-24T00:57:21.209Z,12.20
2018-04-24T00:59:48.634Z,12.20
2018-04-24T01:02:16.824Z,12.20
2018-04-24T01:04:45.032Z,12.10
2018-04-24T01:07:12.440Z,12.10
2018-04-24T01:09:39.860Z,12.10
2018-04-24T01:12:07.329Z,12.00
2018-04-24T01:14:35.556Z,12.00
2018-04-24T01:17:08.432Z,12.00
2018-04-24T01:19:36.356Z,12.00
2018-04-24T01:22:05.446Z,11.90
2018-04-24T01:24:32.959Z,11.90
2018-04-24T01:27:00.376Z,11.90
2018-04-24T01:29:27.791Z,12.00
2018-04-24T01:31:55.232Z,12.20
2018-04-24T01:34:22.661Z,12.20
2018-04-24T01:36:50.080Z,12.20
2018-04-24T01:39:17.499Z,12.30
2018-04-24T01:41:44.954Z,12.30
2018-04-24T01:44:13.132Z,12.00
2018-04-24T01:46:41.325Z,12.00
2018-04-24T01:49:09.504Z,11.90
2018-04-24T01:51:37.689Z,11.90
2018-04-24T01:54:05.126Z,11.80
2018-04-24T01:56:34.067Z,11.80
2018-04-24T01:59:02.246Z,11.80
2018-04-24T02:01:30.434Z,11.80
2018-04-24T02:03:58.615Z,11.80
2018-04-24T02:06:26.821Z,11.80
2018-04-24T02:08:54.246Z,11.80
2018-04-24T02:11:21.661Z,11.80
2018-04-24T02:13:49.081Z,11.80
2018-04-24T02:16:16.496Z,11.70
2018-04-24T02:18:43.978Z,11.70
2018-04-24T02:21:12.252Z,11.70
2018-04-24T02:23:39.684Z,11.70
2018-04-24T02:26:07.170Z,11.70
2018-04-24T02:28:35.346Z,11.60
2018-04-24T02:31:02.790Z,11.60
2018-04-24T02:33:30.229Z,11.60
2018-04-24T02:35:57.705Z,11.60
2018-04-24T02:38:25.172Z,11.60
2018-04-24T02:40:52.600Z,11.60
2018-04-24T02:43:20.811Z,11.50
2018-04-24T02:45:48.278Z,11.50
2018-04-24T02:48:15.765Z,11.60
2018-04-24T02:50:43.188Z,11.60
2018-04-24T02:53:10.634Z,11.60
2018-04-24T02:55:38.063Z,11.60
2018-04-24T02:58:05.514Z,11.50
2018-04-24T03:00:34.641Z,11.50
2018-04-24T03:03:02.102Z,11.50
2018-04-24T03:05:29.532Z,11.50
2018-04-24T03:07:56.948Z,11.50
2018-04-24T03:10:24.383Z,11.40
2018-04-24T03:12:52.592Z,11.40
2018-04-24T03:15:19.999Z,11.40
2018-04-24T03:17:47.501Z,11.40
2018-04-24T03:20:15.707Z,11.50
2018-04-24T03:22:43.128Z,11.50
2018-04-24T03:25:10.558Z,11.50
2018-04-24T03:27:37.986Z,11.50
2018-04-24T03:30:05.559Z,11.60
2018-04-24T03:32:33.773Z,11.60
2018-04-24T03:35:01.205Z,11.60
2018-04-24T03:37:28.637Z,11.60
2018-04-24T03:39:56.080Z,11.70
2018-04-24T03:42:23.504Z,11.70
2018-04-24T03:44:50.923Z,11.60
2018-04-24T03:47:18.368Z,11.60
2018-04-24T03:49:46.561Z,11.60
2018-04-24T03:52:14.741Z,11.60
2018-04-24T03:54:42.967Z,11.60
2018-04-24T03:57:10.455Z,11.60
2018-04-24T03:59:38.568Z,11.60
2018-04-24T04:02:06.005Z,11.60
2018-04-24T04:04:33.437Z,11.50
2018-04-24T04:07:00.876Z,11.50
2018-04-24T04:09:29.064Z,11.50
2018-04-24T04:11:57.283Z,11.50
2018-04-24T04:14:24.699Z,11.50
2018-04-24T04:16:52.140Z,11.50
2018-04-24T04:19:31.646Z,11.40
2018-04-24T04:22:11.661Z,11.40
2018-04-24T04:24:49.209Z,11.40
2018-04-24T04:27:17.415Z,11.40
2018-04-24T04:29:44.882Z,11.40
2018-04-24T04:32:12.451Z,11.40
2018-04-24T04:34:39.783Z,11.60
2018-04-24T04:37:07.213Z,11.50
2018-04-24T04:39:34.635Z,11.50
2018-04-24T04:42:02.856Z,11.50
2018-04-24T04:44:30.276Z,11.50
2018-04-24T04:46:57.700Z,11.60
2018-04-24T04:49:25.142Z,11.60
2018-04-24T04:51:53.333Z,11.80
2018-04-24T04:54:21.520Z,11.80
2018-04-24T04:56:48.932Z,11.80
2018-04-24T04:59:16.366Z,11.90
2018-04-24T05:01:43.823Z,11.90
2018-04-24T05:04:12.014Z,12.00
2018-04-24T05:06:39.453Z,12.00
2018-04-24T05:09:07.871Z,12.10
2018-04-24T05:11:35.292Z,12.00
2018-04-24T05:14:02.729Z,12.00
2018-04-24T05:16:30.213Z,12.00
2018-04-24T05:18:57.659Z,12.10
2018-04-24T05:21:25.088Z,12.10
2018-04-24T05:23:52.527Z,12.10
2018-04-24T05:26:19.932Z,12.10
2018-04-24T05:28:47.351Z,12.10
2018-04-24T05:31:14.828Z,12.20
2018-04-24T05:33:42.266Z,12.20
2018-04-24T05:36:09.676Z,12.30
2018-04-24T05:38:37.689Z,12.30
2018-04-24T05:41:05.899Z,12.20
2018-04-24T05:43:36.357Z,12.20
2018-04-24T05:46:03.803Z,12.20
2018-04-24T05:48:31.234Z,12.00
2018-04-24T05:50:58.682Z,12.10
2018-04-24T05:53:26.109Z,12.10
2018-04-24T05:55:53.555Z,12.20
2018-04-24T05:58:21.752Z,12.10
2018-04-24T06:00:49.968Z,12.20
2018-04-24T06:03:17.380Z,12.20
2018-04-24T06:05:44.814Z,12.20
2018-04-24T06:08:12.649Z,12.20
2018-04-24T06:10:40.087Z,12.30
2018-04-24T06:13:09.089Z,12.30
2018-04-24T06:15:36.501Z,12.30
2018-04-24T06:18:04.117Z,12.30
2018-04-24T06:20:31.589Z,12.30
2018-04-24T06:22:59.032Z,12.30
2018-04-24T06:25:26.456Z,12.30
2018-04-24T06:27:54.670Z,12.40
2018-04-24T06:30:22.117Z,12.40
2018-04-24T06:32:50.308Z,12.50
2018-04-24T06:35:17.740Z,12.50
2018-04-24T06:37:45.172Z,12.50
2018-04-24T06:40:12.606Z,12.40
2018-04-24T06:42:40.835Z,12.50
2018-04-24T06:45:09.711Z,12.50
2018-04-24T06:47:37.214Z,12.50
2018-04-24T06:50:04.634Z,12.50
2018-04-24T06:52:32.912Z,12.50
2018-04-24T06:55:01.205Z,12.60
2018-04-24T06:57:29.306Z,12.70
2018-04-24T06:59:57.535Z,12.60
2018-04-24T07:02:25.084Z,12.60
2018-04-24T07:04:52.492Z,12.70
2018-04-24T07:07:19.916Z,12.70
2018-04-24T07:09:47.332Z,12.60
2018-04-24T07:12:14.760Z,12.70
2018-04-24T07:14:42.210Z,12.70
2018-04-24T07:17:09.635Z,12.70
2018-04-24T07:19:37.157Z,12.80
2018-04-24T07:22:04.587Z,12.90
2018-04-24T07:24:32.009Z,13.00
2018-04-24T07:26:59.499Z,13.00
2018-04-24T07:29:26.919Z,13.00
2018-04-24T07:31:54.384Z,13.00
2018-04-24T07:34:21.880Z,13.10
2018-04-24T07:36:50.196Z,13.10
2018-04-24T07:39:17.790Z,13.00
2018-04-24T07:41:45.213Z,12.80
2018-04-24T07:44:12.669Z,12.90
2018-04-24T07:46:41.046Z,13.00
2018-04-24T07:49:08.659Z,13.00
2018-04-24T07:51:36.121Z,12.90
2018-04-24T07:54:03.595Z,12.90
2018-04-24T07:56:31.010Z,13.10
2018-04-24T07:58:59.222Z,13.40
2018-04-24T08:01:26.646Z,13.40
2018-04-24T08:03:54.068Z,13.40
2018-04-24T08:06:21.492Z,13.40
2018-04-24T08:08:49.675Z,13.20
2018-04-24T08:11:17.184Z,13.20
2018-04-24T08:13:44.613Z,13.20
2018-04-24T08:16:12.792Z,13.50
2018-04-24T08:18:40.790Z,13.40
2018-04-24T08:21:08.208Z,13.40
2018-04-24T08:23:35.703Z,13.50
2018-04-24T08:26:03.172Z,13.60
2018-04-24T08:28:30.597Z,13.50
2018-04-24T08:30:58.019Z,13.50
2018-04-24T08:33:25.438Z,13.60
2018-04-24T08:35:52.906Z,13.70
2018-04-24T08:38:20.341Z,13.80
2018-04-24T08:40:48.671Z,13.60
2018-04-24T08:43:16.120Z,13.60
2018-04-24T08:45:43.544Z,13.70
2018-04-24T08:48:12.282Z,13.40
2018-04-24T08:50:39.710Z,13.40
2018-04-24T08:53:07.219Z,13.30
2018-04-24T08:55:35.393Z,13.10
2018-04-24T08:58:03.661Z,13.10
2018-04-24T09:00:31.131Z,13.10
2018-04-24T09:02:58.533Z,12.90
2018-04-24T09:05:25.970Z,12.80
2018-04-24T09:07:53.479Z,12.60
2018-04-24T09:10:20.904Z,12.60
2018-04-24T09:12:48.440Z,12.70
2018-04-24T09:15:15.890Z,12.80
2018-04-24T09:17:43.301Z,12.70
2018-04-24T09:20:10.844Z,12.80
2018-04-24T09:22:38.264Z,12.80
2018-04-24T09:25:06.488Z,12.80
2018-04-24T09:27:33.975Z,12.80
2018-04-24T09:30:02.251Z,12.70
2018-04-24T09:32:29.665Z,12.80
2018-04-24T09:34:57.168Z,12.80
2018-04-24T09:37:24.612Z,12.80
2018-04-24T09:39:52.784Z,12.90
2018-04-24T09:42:21.760Z,12.90
2018-04-24T09:44:49.188Z,12.90
2018-04-24T09:47:17.389Z,12.80
2018-04-24T09:49:44.848Z,12.90
2018-04-24T09:52:13.553Z,12.80
2018-04-24T09:54:40.976Z,12.80
2018-04-24T09:57:08.455Z,12.80
2018-04-24T09:59:35.988Z,12.90
2018-04-24T10:02:03.603Z,12.80
2018-04-24T10:04:31.029Z,12.80
2018-04-24T10:06:58.461Z,12.80
2018-04-24T10:09:25.883Z,12.80
2018-04-24T10:11:53.309Z,12.70
2018-04-24T10:14:20.774Z,12.70
2018-04-24T10:16:48.209Z,12.60
2018-04-24T10:19:15.636Z,12.70
2018-04-24T10:21:44.211Z,12.70
2018-04-24T10:24:11.657Z,12.70
2018-04-24T10:26:39.074Z,12.70
2018-04-24T10:29:06.524Z,12.70
2018-04-24T10:31:34.097Z,12.60
2018-04-24T10:34:01.513Z,12.60
2018-04-24T10:36:29.884Z,12.70
2018-04-24T10:38:57.316Z,12.80
2018-04-24T10:41:24.789Z,13.00
2018-04-24T10:43:53.090Z,13.50
2018-04-24T10:46:20.554Z,13.50
2018-04-24T10:48:48.041Z,13.70
2018-04-24T10:51:15.496Z,13.90
2018-04-24T10:53:42.900Z,14.00
2018-04-24T10:56:10.336Z,13.70
2018-04-24T10:58:37.762Z,13.80
2018-04-24T11:01:06.022Z,13.80
2018-04-24T11:03:33.505Z,13.80
2018-04-24T11:06:00.909Z,13.80
2018-04-24T11:08:28.330Z,13.90
2018-04-24T11:10:55.749Z,13.90
2018-04-24T11:13:23.166Z,14.00
2018-04-24T11:15:50.696Z,14.00
2018-04-24T11:18:18.121Z,14.10
2018-04-24T11:20:45.541Z,14.10
2018-04-24T11:23:12.980Z,13.90
2018-04-24T11:25:40.428Z,13.80
2018-04-24T11:28:08.626Z,13.60
2018-04-24T11:30:36.829Z,13.60
2018-04-24T11:33:04.240Z,13.60
2018-04-24T11:38:13.792Z,13.80
2018-04-24T11:40:41.213Z,13.70
2018-04-24T11:43:08.648Z,13.80
2018-04-24T11:45:36.057Z,14.00
2018-04-24T11:48:03.490Z,14.20
2018-04-24T11:50:30.924Z,14.30
2018-04-24T11:52:58.432Z,14.60
2018-04-24T11:55:25.865Z,14.90
2018-04-24T11:57:53.292Z,14.90
2018-04-24T12:00:20.804Z,14.90
2018-04-24T12:02:48.340Z,14.90
2018-04-24T12:05:15.692Z,15.00
2018-04-24T12:07:43.123Z,15.10
2018-04-24T12:10:10.552Z,15.00
2018-04-24T12:12:38.045Z,15.00
2018-04-24T12:15:05.516Z,15.00
2018-04-24T12:17:33.197Z,15.20
2018-04-24T12:20:00.628Z,15.50
2018-04-24T12:22:28.065Z,15.70
2018-04-24T12:24:55.472Z,15.60
2018-04-24T12:27:23.664Z,15.10
2018-04-24T12:29:51.881Z,15.10
2018-04-24T12:32:19.312Z,15.10
2018-04-24T12:34:47.507Z,15.00
2018-04-24T12:37:14.988Z,14.90
2018-04-24T12:39:43.141Z,14.70
2018-04-24T12:42:10.570Z,14.70
2018-04-24T12:44:38.009Z,14.80
2018-04-24T12:47:05.488Z,14.90
2018-04-24T12:49:32.942Z,15.00
2018-04-24T12:52:00.415Z,15.20
2018-04-24T12:54:27.836Z,15.10
2018-04-24T12:56:55.356Z,15.10
2018-04-24T12:59:23.525Z,15.00
2018-04-24T13:01:51.708Z,14.80
2018-04-24T13:04:19.133Z,14.80
2018-04-24T13:06:47.507Z,14.90
2018-04-24T13:09:14.912Z,14.90
2018-04-24T13:11:42.345Z,15.00
2018-04-24T13:14:09.811Z,15.00
2018-04-24T13:16:37.340Z,15.40
2018-04-24T13:19:05.561Z,16.70
2018-04-24T13:21:33.022Z,16.60
2018-04-24T13:24:00.432Z,17.30
2018-04-24T13:26:28.628Z,17.50
2018-04-24T13:28:56.072Z,17.50
2018-04-24T13:31:23.523Z,17.50
2018-04-24T13:33:50.948Z,17.20
2018-04-24T13:36:19.178Z,16.70
2018-04-24T13:38:47.345Z,16.60
2018-04-24T13:41:14.794Z,16.40
2018-04-24T13:43:42.199Z,15.90
2018-04-24T13:46:09.661Z,15.80
2018-04-24T13:48:37.081Z,15.70
2018-04-24T13:51:04.527Z,15.50
2018-04-24T13:53:31.973Z,15.40
2018-04-24T13:55:59.416Z,15.30
2018-04-24T13:58:27.608Z,15.40
2018-04-24T14:00:55.130Z,15.40
2018-04-24T14:03:22.470Z,15.60
2018-04-24T14:05:49.904Z,15.70
2018-04-24T14:08:18.724Z,15.80
2018-04-24T14:10:46.125Z,15.80
2018-04-24T14:13:13.540Z,15.80
2018-04-24T14:15:41.745Z,15.80
2018-04-24T14:18:09.163Z,15.80
2018-04-24T14:20:36.694Z,15.80
2018-04-24T14:23:04.194Z,15.80
2018-04-24T14:25:31.615Z,15.80
2018-04-24T14:27:59.789Z,15.70
2018-04-24T14:30:27.982Z,15.70
2018-04-24T14:32:55.400Z,15.60
2018-04-24T14:35:22.865Z,15.60
2018-04-24T14:37:50.293Z,15.50
2018-04-24T14:40:18.664Z,15.40
2018-04-24T14:42:46.924Z,15.30
2018-04-24T14:45:15.037Z,15.20
2018-04-24T14:47:43.257Z,15.20
2018-04-24T14:50:11.477Z,15.20
2018-04-24T14:52:38.920Z,15.10
2018-04-24T14:55:06.353Z,15.10
2018-04-24T14:57:34.604Z,15.10
2018-04-24T15:00:02.026Z,15.10
2018-04-24T15:02:29.457Z,15.10
2018-04-24T15:04:57.642Z,14.80
2018-04-24T15:07:25.171Z,14.90
2018-04-24T15:09:52.615Z,14.80
2018-04-24T15:12:20.044Z,14.90
2018-04-24T15:14:47.468Z,14.90
2018-04-24T15:17:14.914Z,14.90
2018-04-24T15:19:42.398Z,14.80
2018-04-24T15:22:09.828Z,14.80
2018-04-24T15:24:37.261Z,14.80
2018-04-24T15:27:04.744Z,14.70
2018-04-24T15:29:32.161Z,14.70
2018-04-24T15:31:59.600Z,14.70
2018-04-24T15:34:27.021Z,14.70
2018-04-24T15:36:54.480Z,14.70
2018-04-24T15:39:21.904Z,14.70
2018-04-24T15:41:50.637Z,14.90
2018-04-24T15:44:19.752Z,15.50
2018-04-24T15:46:47.179Z,15.50
2018-04-24T15:49:14.624Z,16.40
2018-04-24T15:51:42.059Z,17.10
2018-04-24T15:54:09.480Z,17.20
2018-04-24T15:56:36.920Z,17.10
2018-04-24T15:59:04.376Z,16.70
2018-04-24T16:01:31.801Z,16.10
2018-04-24T16:03:59.996Z,15.70
2018-04-24T16:06:28.171Z,15.60
2018-04-24T16:08:56.365Z,15.60
2018-04-24T16:11:24.680Z,15.70
2018-04-24T16:13:52.273Z,15.70
2018-04-24T16:16:20.640Z,15.80
2018-04-24T16:18:48.101Z,15.80
2018-04-24T16:21:15.533Z,15.80
2018-04-24T16:23:43.054Z,15.90
2018-04-24T16:26:10.470Z,16.10
2018-04-24T16:28:37.899Z,16.40
2018-04-24T16:31:05.312Z,16.90
2018-04-24T16:33:32.830Z,17.50
2018-04-24T16:36:00.234Z,17.90
2018-04-24T16:38:27.673Z,17.80
2018-04-24T16:40:55.077Z,17.40
2018-04-24T16:43:22.501Z,17.00
2018-04-24T16:45:49.964Z,16.70
2018-04-24T16:48:17.417Z,16.70
2018-04-24T16:50:44.849Z,16.60
2018-04-24T16:53:12.284Z,16.50
2018-04-24T16:55:39.704Z,16.40
2018-04-24T16:58:07.897Z,16.10
2018-04-24T17:00:36.154Z,15.80
2018-04-24T17:03:03.529Z,15.70
2018-04-24T17:05:31.723Z,15.50
2018-04-24T17:07:59.153Z,15.50
2018-04-24T17:10:26.595Z,15.40
2018-04-24T17:12:54.174Z,15.30
2018-04-24T17:15:22.636Z,15.30
2018-04-24T17:17:51.744Z,15.20
2018-04-24T17:20:19.966Z,15.10
2018-04-24T17:22:47.380Z,15.10
2018-04-24T17:25:14.888Z,15.10
2018-04-24T17:27:42.363Z,15.20
2018-04-24T17:30:10.557Z,15.70
2018-04-24T17:32:38.055Z,15.60
2018-04-24T17:35:05.720Z,15.80
2018-04-24T17:37:33.140Z,15.90
2018-04-24T17:40:01.331Z,15.80
2018-04-24T17:42:29.536Z,15.80
2018-04-24T17:44:57.034Z,15.70
2018-04-24T17:47:24.456Z,15.80
2018-04-24T17:49:53.274Z,15.70
2018-04-24T17:52:22.363Z,15.70
2018-04-24T17:54:49.971Z,15.60
2018-04-24T17:57:18.158Z,15.70
2018-04-24T17:59:45.600Z,15.60
2018-04-24T18:02:13.790Z,15.60
2018-04-24T18:04:41.978Z,15.20
2018-04-24T18:07:10.152Z,15.10
2018-04-24T18:09:38.385Z,15.20
2018-04-24T18:12:05.785Z,15.20
2018-04-24T18:14:33.232Z,15.40
2018-04-24T18:17:00.676Z,15.50
2018-04-24T18:19:28.183Z,15.40
2018-04-24T18:21:55.605Z,15.50
2018-04-24T18:24:23.904Z,15.50
2018-04-24T18:26:51.326Z,15.50
2018-04-24T18:29:18.839Z,15.50
2018-04-24T18:31:47.025Z,15.50
2018-04-24T18:34:14.493Z,15.50
2018-04-24T18:36:41.883Z,15.60
2018-04-24T18:39:09.328Z,15.60
2018-04-24T18:41:37.491Z,15.50
2018-04-24T18:44:05.818Z,15.50
2018-04-24T18:46:33.257Z,15.50
2018-04-24T18:49:01.465Z,15.60
2018-04-24T18:51:28.934Z,15.60
2018-04-24T18:53:56.353Z,15.70
2018-04-24T18:56:23.777Z,15.70
2018-04-24T18:58:51.220Z,15.40
2018-04-24T19:01:18.705Z,15.30
2018-04-24T19:03:46.876Z,15.30
2018-04-24T19:06:15.074Z,15.20
2018-04-24T19:08:42.495Z,15.20
2018-04-24T19:11:09.915Z,15.10
2018-04-24T19:13:37.456Z,14.80
2018-04-24T19:16:05.677Z,14.50
2018-04-24T19:18:38.842Z,14.40
2018-04-24T19:21:07.024Z,14.30
2018-04-24T19:23:34.464Z,14.30
2018-04-24T19:26:01.892Z,14.20
2018-04-24T19:28:29.341Z,14.10
2018-04-24T19:30:57.528Z,14.00
2018-04-24T19:33:25.734Z,14.00
2018-04-24T19:35:55.099Z,14.00
2018-04-24T19:38:22.538Z,13.90
2018-04-24T19:40:55.685Z,13.90
2018-04-24T19:43:23.103Z,13.90
2018-04-24T19:45:50.537Z,13.90
2018-04-24T19:48:24.386Z,13.70
2018-04-24T19:50:51.812Z,13.70
2018-04-24T19:53:19.999Z,13.80
2018-04-24T19:55:47.428Z,13.80
2018-04-24T19:58:14.839Z,13.80
2018-04-24T20:00:43.041Z,13.80
2018-04-24T20:03:10.460Z,13.80
2018-04-24T20:05:37.893Z,13.80
2018-04-24T20:08:05.329Z,13.80
2018-04-24T20:10:33.623Z,13.80
2018-04-24T20:13:00.976Z,13.70
2018-04-24T20:15:28.400Z,13.70
2018-04-24T20:17:55.829Z,13.70
2018-04-24T20:20:24.952Z,13.70
2018-04-24T20:22:52.380Z,13.70
2018-04-24T20:25:20.620Z,13.70
2018-04-24T20:27:48.044Z,13.70
2018-04-24T20:30:15.456Z,13.70
2018-04-24T20:32:42.884Z,13.70
2018-04-24T20:35:10.316Z,13.70
2018-04-24T20:37:37.762Z,13.60
2018-04-24T20:40:05.188Z,13.60
2018-04-24T20:42:33.412Z,13.60
2018-04-24T20:45:00.898Z,13.50
2018-04-24T20:47:28.433Z,13.50
2018-04-24T20:49:55.762Z,13.50
2018-04-24T20:52:23.184Z,13.50
2018-04-24T20:54:50.618Z,13.50
2018-04-24T20:57:18.034Z,13.60
2018-04-24T20:59:46.236Z,13.50
2018-04-24T21:02:13.668Z,13.50
2018-04-24T21:04:41.102Z,13.50
2018-04-24T21:07:08.544Z,13.50
2018-04-24T21:09:36.005Z,13.50
2018-04-24T21:12:03.506Z,13.50
2018-04-24T21:14:30.944Z,13.50
2018-04-24T21:16:58.384Z,13.50
2018-04-24T21:19:25.889Z,13.50
2018-04-24T21:21:53.324Z,13.40
2018-04-24T21:24:20.789Z,13.40
2018-04-24T21:26:48.368Z,13.50
2018-04-24T21:29:16.527Z,13.50
2018-04-24T21:31:44.725Z,13.40
2018-04-24T21:34:12.149Z,13.40
2018-04-24T21:36:39.587Z,13.40
2018-04-24T21:39:06.992Z,13.40
2018-04-24T21:41:34.427Z,13.40
2018-04-24T21:44:01.859Z,13.40
2018-04-24T21:46:30.166Z,13.40
2018-04-24T21:48:58.764Z,13.30
2018-04-24T21:51:26.186Z,13.30
2018-04-24T21:53:53.606Z,13.30
2018-04-24T21:56:21.016Z,13.30
2018-04-24T21:58:49.228Z,13.30
2018-04-24T22:01:19.080Z,13.10
2018-04-24T22:03:46.498Z,13.10
2018-04-24T22:06:13.908Z,13.10
2018-04-24T22:08:41.329Z,13.10
2018-04-24T22:11:08.852Z,13.10
2018-04-24T22:13:36.305Z,13.10
2018-04-24T22:16:03.747Z,13.10
2018-04-24T22:18:31.172Z,13.10
2018-04-24T22:20:58.673Z,13.00
2018-04-24T22:23:26.130Z,13.00
2018-04-24T22:25:54.232Z,13.00
2018-04-24T22:28:21.767Z,13.00
2018-04-24T22:30:49.171Z,13.00
2018-04-24T22:33:17.412Z,13.00
2018-04-24T22:35:44.832Z,13.00
2018-04-24T22:38:13.015Z,13.00
2018-04-24T22:40:40.432Z,13.00
2018-04-24T22:43:07.856Z,13.00
2018-04-24T22:45:35.276Z,13.00
2018-04-24T22:48:04.116Z,13.00
2018-04-24T22:50:31.527Z,13.00
2018-04-24T22:52:59.132Z,12.90
2018-04-24T22:55:27.479Z,12.90
2018-04-24T22:57:55.653Z,12.90
2018-04-24T23:00:23.844Z,13.00
2018-04-24T23:02:52.029Z,13.00
2018-04-24T23:05:20.569Z,13.00
2018-04-24T23:07:47.991Z,13.00
2018-04-24T23:10:28.143Z,13.00
2018-04-24T23:13:07.256Z,13.00
2018-04-24T23:15:46.647Z,13.10
2018-04-24T23:18:26.684Z,13.00
2018-04-24T23:20:53.645Z,13.00
2018-04-24T23:23:21.065Z,13.00
2018-04-24T23:25:48.476Z,13.00
2018-04-24T23:28:16.001Z,13.00
2018-04-24T23:30:43.416Z,13.10
2018-04-24T23:33:10.905Z,13.00
2018-04-24T23:35:38.331Z,13.00
2018-04-24T23:38:05.755Z,13.00
2018-04-24T23:40:33.935Z,13.00
2018-04-24T23:43:01.349Z,13.00
2018-04-24T23:45:28.792Z,13.00
2018-04-24T23:47:56.203Z,13.00
2018-04-24T23:50:23.665Z,13.00
2018-04-24T23:52:51.041Z,12.90
2018-04-24T23:55:18.456Z,12.80
2018-04-24T23:57:46.632Z,13.10
